This is the latest recevied weather packets stored in our database for station/object DM0MR. If no packets are shown the sender has not sent any weather packets the latest 10 day(s).
| Time | Temp. | Humidity | Pressure | Rain* | Wind** | Luminosity | Snow |
|---|---|---|---|---|---|---|---|
| 1787650687 | 21.67° C | 53% | 1013.5 hPa | 0 mm | - | - | - |
| 1787649787 | 22.22° C | 51% | 1013.5 hPa | 0 mm | - | - | - |
| 1787647089 | 20.56° C | 57% | 1013.6 hPa | 0 mm | - | - | - |
| 1787645288 | 20° C | 59% | 1013.7 hPa | 0 mm | - | - | - |
| 1787644388 | 18.89° C | 63% | 1013.7 hPa | 0 mm | - | - | - |
| 1787641686 | 17.78° C | 66% | 1013.8 hPa | 0 mm | - | - | - |
| 1787640788 | 16.67° C | 71% | 1013.6 hPa | 0 mm | - | - | - |
| 1787638086 | 15.56° C | 73% | 1013.6 hPa | 0 mm | - | - | - |
| 1787637186 | 13.89° C | 81% | 1013.6 hPa | 0 mm | - | - | - |
| 1787634488 | 12.78° C | 84% | 1013.3 hPa | 0 mm | - | - | - |
| 1787633586 | 12.78° C | 83% | 1013.6 hPa | 0 mm | - | - | - |
| 1787632687 | 12.78° C | 83% | 1013.6 hPa | 0 mm | - | - | - |
| 1787631786 | 12.78° C | 82% | 1013.6 hPa | 0 mm | - | - | - |
| 1787629986 | 12.78° C | 81% | 1013.9 hPa | 0 mm | - | - | - |
| 1787628186 | 12.78° C | 80% | 1014.1 hPa | 0 mm | - | - | - |
| 1787625487 | 13.33° C | 77% | 1014 hPa | 0 mm | - | - | - |
| 1787624587 | 13.89° C | 75% | 1014.1 hPa | 0 mm | - | - | - |
| 1787623687 | 13.89° C | 75% | 1014.3 hPa | 0 mm | - | - | - |
| 1787620086 | 15° C | 71% | 1014.8 hPa | 0 mm | - | - | - |
| 1787619187 | 15.56° C | 69% | 1014.9 hPa | 0 mm | - | - | - |
| 1787618286 | 15.56° C | 69% | 1015.3 hPa | 0 mm | - | - | - |
| 1787615586 | 15° C | 69% | 1015.4 hPa | 0 mm | - | - | - |
| 1787613786 | 15.56° C | 68% | 1015.5 hPa | 0 mm | - | - | - |
| 1787612886 | 15.56° C | 67% | 1015.6 hPa | 0 mm | - | - | - |
| 1787611086 | 15.56° C | 67% | 1016.2 hPa | 0 mm | - | - | - |
* Rain latest hour (hover to see other rain measurements)
** Current wind speed in m/s (hover to see current wind gust speed)